sensor_id;sensor_type;location;lat;lon;timestamp;temperature;humidity
8539;DHT22;4307;53.868;11.680;2023-10-08T00:02:16;13.00;99.90
8539;DHT22;4307;53.868;11.680;2023-10-08T00:04:48;13.00;99.90
8539;DHT22;4307;53.868;11.680;2023-10-08T00:07:16;13.00;99.90
8539;DHT22;4307;53.868;11.680;2023-10-08T00:09:47;13.00;99.90
8539;DHT22;4307;53.868;11.680;2023-10-08T00:12:13;13.00;99.90
8539;DHT22;4307;53.868;11.680;2023-10-08T00:14:42;12.90;99.90
8539;DHT22;4307;53.868;11.680;2023-10-08T00:17:12;12.90;99.90
8539;DHT22;4307;53.868;11.680;2023-10-08T00:19:39;12.90;99.90
8539;DHT22;4307;53.868;11.680;2023-10-08T00:22:08;12.90;99.90
8539;DHT22;4307;53.868;11.680;2023-10-08T00:24:35;12.90;99.90
8539;DHT22;4307;53.868;11.680;2023-10-08T00:27:06;12.90;99.90
8539;DHT22;4307;53.868;11.680;2023-10-08T00:29:33;12.90;99.90
8539;DHT22;4307;53.868;11.680;2023-10-08T00:32:00;12.80;99.90
8539;DHT22;4307;53.868;11.680;2023-10-08T00:34:38;12.90;99.90
8539;DHT22;4307;53.868;11.680;2023-10-08T00:37:08;12.90;99.90
8539;DHT22;4307;53.868;11.680;2023-10-08T00:39:36;12.80;99.90
8539;DHT22;4307;53.868;11.680;2023-10-08T00:42:04;12.90;99.90
8539;DHT22;4307;53.868;11.680;2023-10-08T00:44:33;12.90;99.90
8539;DHT22;4307;53.868;11.680;2023-10-08T00:47:04;12.90;99.90
8539;DHT22;4307;53.868;11.680;2023-10-08T00:49:32;12.90;99.90
8539;DHT22;4307;53.868;11.680;2023-10-08T00:52:15;12.90;99.90
8539;DHT22;4307;53.868;11.680;2023-10-08T00:54:56;12.80;99.90
8539;DHT22;4307;53.868;11.680;2023-10-08T00:57:35;12.90;99.90
8539;DHT22;4307;53.868;11.680;2023-10-08T01:00:15;12.90;99.90
8539;DHT22;4307;53.868;11.680;2023-10-08T01:02:47;12.90;99.90
8539;DHT22;4307;53.868;11.680;2023-10-08T01:05:20;12.80;99.90
8539;DHT22;4307;53.868;11.680;2023-10-08T01:07:53;12.80;99.90
8539;DHT22;4307;53.868;11.680;2023-10-08T01:10:21;12.80;99.90
8539;DHT22;4307;53.868;11.680;2023-10-08T01:12:50;12.80;99.90
8539;DHT22;4307;53.868;11.680;2023-10-08T01:15:30;12.70;99.90
8539;DHT22;4307;53.868;11.680;2023-10-08T01:18:01;12.60;99.90
8539;DHT22;4307;53.868;11.680;2023-10-08T01:20:30;12.60;99.90
8539;DHT22;4307;53.868;11.680;2023-10-08T01:23:03;12.60;99.90
8539;DHT22;4307;53.868;11.680;2023-10-08T01:25:32;12.60;99.90
8539;DHT22;4307;53.868;11.680;2023-10-08T01:28:00;12.60;99.90
8539;DHT22;4307;53.868;11.680;2023-10-08T01:30:33;12.50;99.90
8539;DHT22;4307;53.868;11.680;2023-10-08T01:33:06;12.50;99.90
8539;DHT22;4307;53.868;11.680;2023-10-08T01:35:36;12.50;99.90
8539;DHT22;4307;53.868;11.680;2023-10-08T01:38:05;12.50;99.90
8539;DHT22;4307;53.868;11.680;2023-10-08T01:40:34;12.50;99.90
8539;DHT22;4307;53.868;11.680;2023-10-08T01:43:01;12.40;99.90
8539;DHT22;4307;53.868;11.680;2023-10-08T01:45:29;12.40;99.90
8539;DHT22;4307;53.868;11.680;2023-10-08T01:47:57;12.40;99.90
8539;DHT22;4307;53.868;11.680;2023-10-08T01:50:24;12.40;99.90
8539;DHT22;4307;53.868;11.680;2023-10-08T01:52:51;12.40;99.90
8539;DHT22;4307;53.868;11.680;2023-10-08T01:55:19;12.40;99.90
8539;DHT22;4307;53.868;11.680;2023-10-08T01:57:49;12.40;99.90
8539;DHT22;4307;53.868;11.680;2023-10-08T02:00:17;12.30;99.90
8539;DHT22;4307;53.868;11.680;2023-10-08T02:02:46;12.30;99.90
8539;DHT22;4307;53.868;11.680;2023-10-08T02:05:12;12.30;99.90
8539;DHT22;4307;53.868;11.680;2023-10-08T02:07:40;12.30;99.90
8539;DHT22;4307;53.868;11.680;2023-10-08T02:10:08;12.30;99.90
8539;DHT22;4307;53.868;11.680;2023-10-08T02:12:37;12.20;99.90
8539;DHT22;4307;53.868;11.680;2023-10-08T02:15:05;12.20;99.90
8539;DHT22;4307;53.868;11.680;2023-10-08T02:17:32;12.20;99.90
8539;DHT22;4307;53.868;11.680;2023-10-08T02:19:59;12.20;99.90
8539;DHT22;4307;53.868;11.680;2023-10-08T02:22:25;12.10;99.90
8539;DHT22;4307;53.868;11.680;2023-10-08T02:24:53;12.00;99.90
8539;DHT22;4307;53.868;11.680;2023-10-08T02:27:26;12.00;99.90
8539;DHT22;4307;53.868;11.680;2023-10-08T02:29:54;11.90;99.90
8539;DHT22;4307;53.868;11.680;2023-10-08T02:32:21;11.90;99.90
8539;DHT22;4307;53.868;11.680;2023-10-08T02:34:48;11.90;99.90
8539;DHT22;4307;53.868;11.680;2023-10-08T02:37:15;11.80;99.90
8539;DHT22;4307;53.868;11.680;2023-10-08T02:39:42;11.80;99.90
8539;DHT22;4307;53.868;11.680;2023-10-08T02:42:10;11.80;99.90
8539;DHT22;4307;53.868;11.680;2023-10-08T02:44:40;11.70;99.90
8539;DHT22;4307;53.868;11.680;2023-10-08T02:47:09;11.70;99.90
8539;DHT22;4307;53.868;11.680;2023-10-08T02:49:37;11.60;99.90
8539;DHT22;4307;53.868;11.680;2023-10-08T02:52:06;11.60;99.90
8539;DHT22;4307;53.868;11.680;2023-10-08T02:54:34;11.60;99.90
8539;DHT22;4307;53.868;11.680;2023-10-08T02:57:03;11.60;99.90
8539;DHT22;4307;53.868;11.680;2023-10-08T02:59:35;11.50;99.90
8539;DHT22;4307;53.868;11.680;2023-10-08T03:02:06;11.50;99.90
8539;DHT22;4307;53.868;11.680;2023-10-08T03:04:41;11.50;99.90
8539;DHT22;4307;53.868;11.680;2023-10-08T03:07:10;11.40;99.90
8539;DHT22;4307;53.868;11.680;2023-10-08T03:09:46;11.40;99.90
8539;DHT22;4307;53.868;11.680;2023-10-08T03:12:15;11.30;99.90
8539;DHT22;4307;53.868;11.680;2023-10-08T03:14:42;11.20;99.90
8539;DHT22;4307;53.868;11.680;2023-10-08T03:17:26;11.20;99.90
8539;DHT22;4307;53.868;11.680;2023-10-08T03:19:55;11.10;99.90
8539;DHT22;4307;53.868;11.680;2023-10-08T03:22:27;11.10;99.90
8539;DHT22;4307;53.868;11.680;2023-10-08T03:24:58;11.10;99.90
8539;DHT22;4307;53.868;11.680;2023-10-08T03:27:39;11.00;99.90
8539;DHT22;4307;53.868;11.680;2023-10-08T03:30:08;10.90;99.90
8539;DHT22;4307;53.868;11.680;2023-10-08T03:32:40;10.90;99.90
8539;DHT22;4307;53.868;11.680;2023-10-08T03:35:10;10.90;99.90
8539;DHT22;4307;53.868;11.680;2023-10-08T03:37:38;10.80;99.90
8539;DHT22;4307;53.868;11.680;2023-10-08T03:40:11;10.70;99.90
8539;DHT22;4307;53.868;11.680;2023-10-08T03:42:50;10.70;99.90
8539;DHT22;4307;53.868;11.680;2023-10-08T03:45:21;10.60;99.90
8539;DHT22;4307;53.868;11.680;2023-10-08T03:48:01;10.50;99.90
8539;DHT22;4307;53.868;11.680;2023-10-08T03:50:33;10.50;99.90
8539;DHT22;4307;53.868;11.680;2023-10-08T03:53:06;10.50;99.90
8539;DHT22;4307;53.868;11.680;2023-10-08T03:55:37;10.50;99.90
8539;DHT22;4307;53.868;11.680;2023-10-08T03:58:06;10.40;99.90
8539;DHT22;4307;53.868;11.680;2023-10-08T04:00:36;10.40;99.90
8539;DHT22;4307;53.868;11.680;2023-10-08T04:03:07;10.40;99.90
8539;DHT22;4307;53.868;11.680;2023-10-08T04:05:38;10.30;99.90
8539;DHT22;4307;53.868;11.680;2023-10-08T04:08:25;10.30;99.90
8539;DHT22;4307;53.868;11.680;2023-10-08T04:11:05;10.20;99.90
8539;DHT22;4307;53.868;11.680;2023-10-08T04:13:53;10.20;99.90
8539;DHT22;4307;53.868;11.680;2023-10-08T04:16:19;10.10;99.90
8539;DHT22;4307;53.868;11.680;2023-10-08T04:18:46;10.10;99.90
8539;DHT22;4307;53.868;11.680;2023-10-08T04:21:18;10.10;99.90
8539;DHT22;4307;53.868;11.680;2023-10-08T04:23:46;10.10;99.90
8539;DHT22;4307;53.868;11.680;2023-10-08T04:26:16;10.00;99.90
8539;DHT22;4307;53.868;11.680;2023-10-08T04:28:43;10.10;99.90
8539;DHT22;4307;53.868;11.680;2023-10-08T04:31:10;10.10;99.90
8539;DHT22;4307;53.868;11.680;2023-10-08T04:33:43;10.10;99.90
8539;DHT22;4307;53.868;11.680;2023-10-08T04:36:10;10.10;99.90
8539;DHT22;4307;53.868;11.680;2023-10-08T04:38:44;10.20;99.90
8539;DHT22;4307;53.868;11.680;2023-10-08T04:41:13;10.20;99.90
8539;DHT22;4307;53.868;11.680;2023-10-08T04:43:44;10.20;99.90
8539;DHT22;4307;53.868;11.680;2023-10-08T04:46:13;10.20;99.90
8539;DHT22;4307;53.868;11.680;2023-10-08T04:48:59;10.10;99.90
8539;DHT22;4307;53.868;11.680;2023-10-08T04:51:30;10.00;99.90
8539;DHT22;4307;53.868;11.680;2023-10-08T04:54:01;10.00;99.90
8539;DHT22;4307;53.868;11.680;2023-10-08T04:56:30;10.00;99.90
8539;DHT22;4307;53.868;11.680;2023-10-08T04:58:58;9.90;99.90
8539;DHT22;4307;53.868;11.680;2023-10-08T05:01:25;9.80;99.90
8539;DHT22;4307;53.868;11.680;2023-10-08T05:04:03;9.80;99.90
8539;DHT22;4307;53.868;11.680;2023-10-08T05:06:49;9.70;99.90
8539;DHT22;4307;53.868;11.680;2023-10-08T05:09:28;9.70;99.90
8539;DHT22;4307;53.868;11.680;2023-10-08T05:12:13;9.70;99.90
8539;DHT22;4307;53.868;11.680;2023-10-08T05:15:08;9.70;99.90
8539;DHT22;4307;53.868;11.680;2023-10-08T05:18:03;9.60;99.90
8539;DHT22;4307;53.868;11.680;2023-10-08T05:20:40;9.60;99.90
8539;DHT22;4307;53.868;11.680;2023-10-08T05:23:25;9.50;99.90
8539;DHT22;4307;53.868;11.680;2023-10-08T05:26:38;9.50;99.90
8539;DHT22;4307;53.868;11.680;2023-10-08T05:29:08;9.50;99.90
8539;DHT22;4307;53.868;11.680;2023-10-08T05:31:50;9.40;99.90
8539;DHT22;4307;53.868;11.680;2023-10-08T05:34:40;9.40;99.90
8539;DHT22;4307;53.868;11.680;2023-10-08T05:37:16;9.40;99.90
8539;DHT22;4307;53.868;11.680;2023-10-08T05:40:12;9.40;99.90
8539;DHT22;4307;53.868;11.680;2023-10-08T05:42:46;9.30;99.90
8539;DHT22;4307;53.868;11.680;2023-10-08T05:45:15;9.30;99.90
8539;DHT22;4307;53.868;11.680;2023-10-08T05:47:55;9.20;99.90
8539;DHT22;4307;53.868;11.680;2023-10-08T05:50:38;9.20;99.90
8539;DHT22;4307;53.868;11.680;2023-10-08T05:53:08;9.20;99.90
8539;DHT22;4307;53.868;11.680;2023-10-08T05:55:46;9.10;99.90
8539;DHT22;4307;53.868;11.680;2023-10-08T05:58:26;9.10;99.90
8539;DHT22;4307;53.868;11.680;2023-10-08T06:01:01;9.10;99.90
8539;DHT22;4307;53.868;11.680;2023-10-08T06:03:34;9.10;99.90
8539;DHT22;4307;53.868;11.680;2023-10-08T06:06:14;9.10;99.90
8539;DHT22;4307;53.868;11.680;2023-10-08T06:09:02;9.10;99.90
8539;DHT22;4307;53.868;11.680;2023-10-08T06:11:48;9.10;99.90
8539;DHT22;4307;53.868;11.680;2023-10-08T06:14:35;9.10;99.90
8539;DHT22;4307;53.868;11.680;2023-10-08T06:17:33;9.10;99.90
8539;DHT22;4307;53.868;11.680;2023-10-08T06:20:21;9.10;99.90
8539;DHT22;4307;53.868;11.680;2023-10-08T06:22:51;9.10;99.90
8539;DHT22;4307;53.868;11.680;2023-10-08T06:25:19;9.10;99.90
8539;DHT22;4307;53.868;11.680;2023-10-08T06:27:51;9.10;99.90
8539;DHT22;4307;53.868;11.680;2023-10-08T06:30:21;9.10;99.90
8539;DHT22;4307;53.868;11.680;2023-10-08T06:32:50;9.20;99.90
8539;DHT22;4307;53.868;11.680;2023-10-08T06:35:19;9.20;99.90
8539;DHT22;4307;53.868;11.680;2023-10-08T06:37:51;9.30;99.90
8539;DHT22;4307;53.868;11.680;2023-10-08T06:40:21;9.40;99.90
8539;DHT22;4307;53.868;11.680;2023-10-08T06:43:03;9.50;99.90
8539;DHT22;4307;53.868;11.680;2023-10-08T06:45:40;9.60;99.90
8539;DHT22;4307;53.868;11.680;2023-10-08T06:48:07;9.70;99.90
8539;DHT22;4307;53.868;11.680;2023-10-08T06:50:34;9.90;99.90
8539;DHT22;4307;53.868;11.680;2023-10-08T06:53:01;10.00;99.90
8539;DHT22;4307;53.868;11.680;2023-10-08T06:55:31;10.20;99.90
8539;DHT22;4307;53.868;11.680;2023-10-08T06:57:59;10.20;99.90
8539;DHT22;4307;53.868;11.680;2023-10-08T07:00:27;10.40;99.90
8539;DHT22;4307;53.868;11.680;2023-10-08T07:03:04;10.40;99.90
8539;DHT22;4307;53.868;11.680;2023-10-08T07:05:33;10.50;99.90
8539;DHT22;4307;53.868;11.680;2023-10-08T07:08:02;10.50;99.90
8539;DHT22;4307;53.868;11.680;2023-10-08T07:10:32;10.60;99.90
8539;DHT22;4307;53.868;11.680;2023-10-08T07:12:59;10.60;99.90
8539;DHT22;4307;53.868;11.680;2023-10-08T07:15:29;10.60;99.90
8539;DHT22;4307;53.868;11.680;2023-10-08T07:17:56;10.60;99.90
8539;DHT22;4307;53.868;11.680;2023-10-08T07:20:34;10.60;99.90
8539;DHT22;4307;53.868;11.680;2023-10-08T07:23:04;10.60;99.90
8539;DHT22;4307;53.868;11.680;2023-10-08T07:25:35;10.60;99.90
8539;DHT22;4307;53.868;11.680;2023-10-08T07:28:04;10.70;99.90
8539;DHT22;4307;53.868;11.680;2023-10-08T07:30:37;10.90;99.90
8539;DHT22;4307;53.868;11.680;2023-10-08T07:33:05;11.00;99.90
8539;DHT22;4307;53.868;11.680;2023-10-08T07:35:37;11.20;99.90
8539;DHT22;4307;53.868;11.680;2023-10-08T07:38:04;11.30;99.90
8539;DHT22;4307;53.868;11.680;2023-10-08T07:40:35;11.40;99.90
8539;DHT22;4307;53.868;11.680;2023-10-08T07:43:03;11.60;99.90
8539;DHT22;4307;53.868;11.680;2023-10-08T07:45:33;11.70;99.90
8539;DHT22;4307;53.868;11.680;2023-10-08T07:48:03;11.90;99.90
8539;DHT22;4307;53.868;11.680;2023-10-08T07:50:35;12.20;99.90
8539;DHT22;4307;53.868;11.680;2023-10-08T07:53:03;12.70;99.90
8539;DHT22;4307;53.868;11.680;2023-10-08T07:55:30;13.10;99.90
8539;DHT22;4307;53.868;11.680;2023-10-08T07:57:58;13.50;99.90
8539;DHT22;4307;53.868;11.680;2023-10-08T08:00:24;13.90;99.90
8539;DHT22;4307;53.868;11.680;2023-10-08T08:02:56;14.40;99.90
8539;DHT22;4307;53.868;11.680;2023-10-08T08:05:24;14.80;99.90
8539;DHT22;4307;53.868;11.680;2023-10-08T08:07:51;15.20;99.90
8539;DHT22;4307;53.868;11.680;2023-10-08T08:10:18;15.70;99.90
8539;DHT22;4307;53.868;11.680;2023-10-08T08:12:48;16.00;99.90
8539;DHT22;4307;53.868;11.680;2023-10-08T08:15:16;16.40;99.90
8539;DHT22;4307;53.868;11.680;2023-10-08T08:17:44;16.70;99.90
8539;DHT22;4307;53.868;11.680;2023-10-08T08:20:13;17.00;99.90
8539;DHT22;4307;53.868;11.680;2023-10-08T08:22:48;17.30;99.90
8539;DHT22;4307;53.868;11.680;2023-10-08T08:25:19;17.60;99.90
8539;DHT22;4307;53.868;11.680;2023-10-08T08:27:59;17.90;99.90
8539;DHT22;4307;53.868;11.680;2023-10-08T08:30:26;18.10;99.90
8539;DHT22;4307;53.868;11.680;2023-10-08T08:32:52;18.20;99.90
8539;DHT22;4307;53.868;11.680;2023-10-08T08:35:21;18.20;99.90
8539;DHT22;4307;53.868;11.680;2023-10-08T08:37:50;18.10;99.90
8539;DHT22;4307;53.868;11.680;2023-10-08T08:40:18;18.00;99.90
8539;DHT22;4307;53.868;11.680;2023-10-08T08:42:46;18.00;99.90
8539;DHT22;4307;53.868;11.680;2023-10-08T08:45:15;18.10;99.90
8539;DHT22;4307;53.868;11.680;2023-10-08T08:47:46;18.10;99.90
8539;DHT22;4307;53.868;11.680;2023-10-08T08:50:12;18.20;99.90
8539;DHT22;4307;53.868;11.680;2023-10-08T08:52:40;18.30;99.90
8539;DHT22;4307;53.868;11.680;2023-10-08T08:55:09;18.30;99.90
8539;DHT22;4307;53.868;11.680;2023-10-08T08:57:40;18.30;99.90
8539;DHT22;4307;53.868;11.680;2023-10-08T09:00:11;18.50;99.90
8539;DHT22;4307;53.868;11.680;2023-10-08T09:02:39;18.70;99.90
8539;DHT22;4307;53.868;11.680;2023-10-08T09:05:07;18.90;99.90
8539;DHT22;4307;53.868;11.680;2023-10-08T09:07:53;19.10;99.90
8539;DHT22;4307;53.868;11.680;2023-10-08T09:10:23;19.20;99.90
8539;DHT22;4307;53.868;11.680;2023-10-08T09:12:53;19.30;99.90
8539;DHT22;4307;53.868;11.680;2023-10-08T09:15:23;19.50;99.90
8539;DHT22;4307;53.868;11.680;2023-10-08T09:17:51;19.80;99.90
8539;DHT22;4307;53.868;11.680;2023-10-08T09:20:18;20.10;99.90
8539;DHT22;4307;53.868;11.680;2023-10-08T09:22:47;20.30;99.90
8539;DHT22;4307;53.868;11.680;2023-10-08T09:25:34;20.40;99.90
8539;DHT22;4307;53.868;11.680;2023-10-08T09:28:00;20.70;99.90
8539;DHT22;4307;53.868;11.680;2023-10-08T09:30:28;20.90;99.90
8539;DHT22;4307;53.868;11.680;2023-10-08T09:32:55;21.20;99.90
8539;DHT22;4307;53.868;11.680;2023-10-08T09:35:24;21.40;99.90
8539;DHT22;4307;53.868;11.680;2023-10-08T09:37:51;21.50;99.90
8539;DHT22;4307;53.868;11.680;2023-10-08T09:40:19;21.70;99.60
8539;DHT22;4307;53.868;11.680;2023-10-08T09:42:48;21.90;98.80
8539;DHT22;4307;53.868;11.680;2023-10-08T09:45:15;22.10;98.10
8539;DHT22;4307;53.868;11.680;2023-10-08T09:47:53;22.20;97.60
8539;DHT22;4307;53.868;11.680;2023-10-08T09:50:25;22.20;96.80
8539;DHT22;4307;53.868;11.680;2023-10-08T09:52:59;22.00;96.00
8539;DHT22;4307;53.868;11.680;2023-10-08T09:55:27;21.70;95.70
8539;DHT22;4307;53.868;11.680;2023-10-08T09:57:55;21.60;95.70
8539;DHT22;4307;53.868;11.680;2023-10-08T10:00:23;21.50;95.30
8539;DHT22;4307;53.868;11.680;2023-10-08T10:02:57;21.20;94.80
8539;DHT22;4307;53.868;11.680;2023-10-08T10:05:29;20.90;94.60
8539;DHT22;4307;53.868;11.680;2023-10-08T10:07:56;20.60;94.30
8539;DHT22;4307;53.868;11.680;2023-10-08T10:10:27;20.40;94.40
8539;DHT22;4307;53.868;11.680;2023-10-08T10:12:58;20.30;94.50
8539;DHT22;4307;53.868;11.680;2023-10-08T10:15:26;20.30;94.00
8539;DHT22;4307;53.868;11.680;2023-10-08T10:17:58;20.30;93.80
8539;DHT22;4307;53.868;11.680;2023-10-08T10:20:34;20.40;93.70
8539;DHT22;4307;53.868;11.680;2023-10-08T10:23:34;20.50;93.60
8539;DHT22;4307;53.868;11.680;2023-10-08T10:26:02;20.60;93.50
8539;DHT22;4307;53.868;11.680;2023-10-08T10:28:30;20.90;93.60
8539;DHT22;4307;53.868;11.680;2023-10-08T10:30:58;21.00;92.80
8539;DHT22;4307;53.868;11.680;2023-10-08T10:33:30;21.00;92.80
8539;DHT22;4307;53.868;11.680;2023-10-08T10:35:56;21.10;92.60
8539;DHT22;4307;53.868;11.680;2023-10-08T10:38:24;21.10;92.10
8539;DHT22;4307;53.868;11.680;2023-10-08T10:40:52;21.00;91.70
8539;DHT22;4307;53.868;11.680;2023-10-08T10:43:23;21.10;91.60
8539;DHT22;4307;53.868;11.680;2023-10-08T10:45:59;21.30;91.50
8539;DHT22;4307;53.868;11.680;2023-10-08T10:48:43;21.50;91.30
8539;DHT22;4307;53.868;11.680;2023-10-08T10:51:22;21.50;90.70
8539;DHT22;4307;53.868;11.680;2023-10-08T10:53:49;21.30;90.50
8539;DHT22;4307;53.868;11.680;2023-10-08T10:56:23;21.10;90.30
8539;DHT22;4307;53.868;11.680;2023-10-08T10:58:59;20.80;90.30
8539;DHT22;4307;53.868;11.680;2023-10-08T11:01:27;20.60;90.60
8539;DHT22;4307;53.868;11.680;2023-10-08T11:03:56;20.70;90.80
8539;DHT22;4307;53.868;11.680;2023-10-08T11:06:24;20.80;90.90
8539;DHT22;4307;53.868;11.680;2023-10-08T11:08:51;20.80;91.20
8539;DHT22;4307;53.868;11.680;2023-10-08T11:11:18;20.90;91.40
8539;DHT22;4307;53.868;11.680;2023-10-08T11:13:45;20.70;91.40
8539;DHT22;4307;53.868;11.680;2023-10-08T11:16:18;20.60;91.80
8539;DHT22;4307;53.868;11.680;2023-10-08T11:18:48;20.40;92.00
8539;DHT22;4307;53.868;11.680;2023-10-08T11:21:17;20.30;92.00
8539;DHT22;4307;53.868;11.680;2023-10-08T11:23:50;20.10;92.10
8539;DHT22;4307;53.868;11.680;2023-10-08T11:26:22;19.90;92.30
8539;DHT22;4307;53.868;11.680;2023-10-08T11:28:57;19.80;92.60
8539;DHT22;4307;53.868;11.680;2023-10-08T11:31:27;19.90;92.70
8539;DHT22;4307;53.868;11.680;2023-10-08T11:34:00;20.00;92.70
8539;DHT22;4307;53.868;11.680;2023-10-08T11:36:28;19.90;92.40
8539;DHT22;4307;53.868;11.680;2023-10-08T11:38:56;19.90;92.50
8539;DHT22;4307;53.868;11.680;2023-10-08T11:41:28;19.90;92.50
8539;DHT22;4307;53.868;11.680;2023-10-08T11:43:56;20.00;92.50
8539;DHT22;4307;53.868;11.680;2023-10-08T11:46:24;20.10;92.40
8539;DHT22;4307;53.868;11.680;2023-10-08T11:48:53;20.10;92.30
8539;DHT22;4307;53.868;11.680;2023-10-08T11:51:24;20.10;92.30
8539;DHT22;4307;53.868;11.680;2023-10-08T11:53:53;20.10;92.30
8539;DHT22;4307;53.868;11.680;2023-10-08T11:56:19;20.10;92.50
8539;DHT22;4307;53.868;11.680;2023-10-08T11:58:48;20.10;92.70
8539;DHT22;4307;53.868;11.680;2023-10-08T12:01:17;19.90;92.70
8539;DHT22;4307;53.868;11.680;2023-10-08T12:03:44;19.60;92.50
8539;DHT22;4307;53.868;11.680;2023-10-08T12:06:11;19.20;92.50
8539;DHT22;4307;53.868;11.680;2023-10-08T12:08:42;18.90;92.60
8539;DHT22;4307;53.868;11.680;2023-10-08T12:11:12;18.60;92.70
8539;DHT22;4307;53.868;11.680;2023-10-08T12:13:39;18.40;93.10
8539;DHT22;4307;53.868;11.680;2023-10-08T12:16:10;18.20;93.30
8539;DHT22;4307;53.868;11.680;2023-10-08T12:18:46;18.00;93.40
8539;DHT22;4307;53.868;11.680;2023-10-08T12:21:18;17.90;93.50
8539;DHT22;4307;53.868;11.680;2023-10-08T12:23:46;17.90;93.70
8539;DHT22;4307;53.868;11.680;2023-10-08T12:26:13;17.90;93.80
8539;DHT22;4307;53.868;11.680;2023-10-08T12:28:44;17.90;93.70
8539;DHT22;4307;53.868;11.680;2023-10-08T12:31:12;17.90;93.60
8539;DHT22;4307;53.868;11.680;2023-10-08T12:33:41;17.90;93.60
8539;DHT22;4307;53.868;11.680;2023-10-08T12:36:09;17.80;93.50
8539;DHT22;4307;53.868;11.680;2023-10-08T12:38:39;17.70;93.40
8539;DHT22;4307;53.868;11.680;2023-10-08T12:41:09;17.70;93.50
8539;DHT22;4307;53.868;11.680;2023-10-08T12:43:39;17.60;93.50
8539;DHT22;4307;53.868;11.680;2023-10-08T12:46:08;17.50;93.60
8539;DHT22;4307;53.868;11.680;2023-10-08T12:48:41;17.50;93.60
8539;DHT22;4307;53.868;11.680;2023-10-08T12:51:09;17.50;93.70
8539;DHT22;4307;53.868;11.680;2023-10-08T12:53:37;17.50;93.60
8539;DHT22;4307;53.868;11.680;2023-10-08T12:56:05;17.50;93.60
8539;DHT22;4307;53.868;11.680;2023-10-08T12:58:35;17.60;93.60
8539;DHT22;4307;53.868;11.680;2023-10-08T13:01:07;17.70;93.40
8539;DHT22;4307;53.868;11.680;2023-10-08T13:03:35;17.80;93.20
8539;DHT22;4307;53.868;11.680;2023-10-08T13:06:07;17.90;93.10
8539;DHT22;4307;53.868;11.680;2023-10-08T13:08:37;17.90;93.00
8539;DHT22;4307;53.868;11.680;2023-10-08T13:11:04;17.90;92.90
8539;DHT22;4307;53.868;11.680;2023-10-08T13:13:30;17.90;92.70
8539;DHT22;4307;53.868;11.680;2023-10-08T13:15:59;17.90;92.70
8539;DHT22;4307;53.868;11.680;2023-10-08T13:18:29;17.80;92.70
8539;DHT22;4307;53.868;11.680;2023-10-08T13:20:58;17.80;92.90
8539;DHT22;4307;53.868;11.680;2023-10-08T13:23:26;17.80;92.90
8539;DHT22;4307;53.868;11.680;2023-10-08T13:25:54;17.70;92.80
8539;DHT22;4307;53.868;11.680;2023-10-08T13:28:21;17.70;93.00
8539;DHT22;4307;53.868;11.680;2023-10-08T13:30:48;17.70;93.00
8539;DHT22;4307;53.868;11.680;2023-10-08T13:33:19;17.70;92.80
8539;DHT22;4307;53.868;11.680;2023-10-08T13:35:46;17.80;92.70
8539;DHT22;4307;53.868;11.680;2023-10-08T13:38:15;17.80;92.60
8539;DHT22;4307;53.868;11.680;2023-10-08T13:40:42;17.70;92.40
8539;DHT22;4307;53.868;11.680;2023-10-08T13:43:28;17.70;92.50
8539;DHT22;4307;53.868;11.680;2023-10-08T13:46:00;17.70;92.50
8539;DHT22;4307;53.868;11.680;2023-10-08T13:48:31;17.60;92.50
8539;DHT22;4307;53.868;11.680;2023-10-08T13:51:00;17.50;92.50
8539;DHT22;4307;53.868;11.680;2023-10-08T13:53:26;17.50;92.50
8539;DHT22;4307;53.868;11.680;2023-10-08T13:55:56;17.40;92.70
8539;DHT22;4307;53.868;11.680;2023-10-08T13:58:23;17.40;92.90
8539;DHT22;4307;53.868;11.680;2023-10-08T14:00:50;17.40;92.90
8539;DHT22;4307;53.868;11.680;2023-10-08T14:03:18;17.30;92.70
8539;DHT22;4307;53.868;11.680;2023-10-08T14:05:48;17.20;92.50
8539;DHT22;4307;53.868;11.680;2023-10-08T14:08:17;17.10;92.50
8539;DHT22;4307;53.868;11.680;2023-10-08T14:10:44;17.00;92.60
8539;DHT22;4307;53.868;11.680;2023-10-08T14:13:12;17.00;92.60
8539;DHT22;4307;53.868;11.680;2023-10-08T14:15:38;16.90;92.70
8539;DHT22;4307;53.868;11.680;2023-10-08T14:18:10;16.80;92.60
8539;DHT22;4307;53.868;11.680;2023-10-08T14:20:42;16.70;92.60
8539;DHT22;4307;53.868;11.680;2023-10-08T14:23:13;16.70;92.60
8539;DHT22;4307;53.868;11.680;2023-10-08T14:25:43;16.70;92.60
8539;DHT22;4307;53.868;11.680;2023-10-08T14:28:10;16.60;92.70
8539;DHT22;4307;53.868;11.680;2023-10-08T14:30:47;16.60;92.70
8539;DHT22;4307;53.868;11.680;2023-10-08T14:33:19;16.60;92.90
8539;DHT22;4307;53.868;11.680;2023-10-08T14:35:50;16.60;93.00
8539;DHT22;4307;53.868;11.680;2023-10-08T14:38:35;16.50;93.10
8539;DHT22;4307;53.868;11.680;2023-10-08T14:41:19;16.50;93.10
8539;DHT22;4307;53.868;11.680;2023-10-08T14:44:03;16.50;93.10
8539;DHT22;4307;53.868;11.680;2023-10-08T14:46:32;16.50;93.20
8539;DHT22;4307;53.868;11.680;2023-10-08T14:49:03;16.40;93.30
8539;DHT22;4307;53.868;11.680;2023-10-08T14:51:36;16.40;93.50
8539;DHT22;4307;53.868;11.680;2023-10-08T14:54:05;16.30;93.90
8539;DHT22;4307;53.868;11.680;2023-10-08T14:56:33;16.30;93.80
8539;DHT22;4307;53.868;11.680;2023-10-08T14:59:00;16.20;93.90
8539;DHT22;4307;53.868;11.680;2023-10-08T15:01:27;16.20;94.20
8539;DHT22;4307;53.868;11.680;2023-10-08T15:03:53;16.10;94.30
8539;DHT22;4307;53.868;11.680;2023-10-08T15:06:20;16.10;94.40
8539;DHT22;4307;53.868;11.680;2023-10-08T15:08:48;16.10;94.50
8539;DHT22;4307;53.868;11.680;2023-10-08T15:11:16;16.00;94.50
8539;DHT22;4307;53.868;11.680;2023-10-08T15:13:43;15.90;94.70
8539;DHT22;4307;53.868;11.680;2023-10-08T15:16:11;15.90;94.80
8539;DHT22;4307;53.868;11.680;2023-10-08T15:18:38;15.90;94.90
8539;DHT22;4307;53.868;11.680;2023-10-08T15:21:08;15.80;95.00
8539;DHT22;4307;53.868;11.680;2023-10-08T15:23:35;15.70;95.10
8539;DHT22;4307;53.868;11.680;2023-10-08T15:26:03;15.70;95.20
8539;DHT22;4307;53.868;11.680;2023-10-08T15:28:31;15.70;95.20
8539;DHT22;4307;53.868;11.680;2023-10-08T15:30:59;15.70;95.40
8539;DHT22;4307;53.868;11.680;2023-10-08T15:33:26;15.60;95.50
8539;DHT22;4307;53.868;11.680;2023-10-08T15:35:52;15.50;95.60
8539;DHT22;4307;53.868;11.680;2023-10-08T15:38:19;15.50;95.60
8539;DHT22;4307;53.868;11.680;2023-10-08T15:40:46;15.40;95.70
8539;DHT22;4307;53.868;11.680;2023-10-08T15:43:15;15.40;96.10
8539;DHT22;4307;53.868;11.680;2023-10-08T15:45:43;15.30;95.80
8539;DHT22;4307;53.868;11.680;2023-10-08T15:48:10;15.30;95.90
8539;DHT22;4307;53.868;11.680;2023-10-08T15:50:37;15.20;96.00
8539;DHT22;4307;53.868;11.680;2023-10-08T15:53:05;15.20;96.20
8539;DHT22;4307;53.868;11.680;2023-10-08T15:55:32;15.10;96.30
8539;DHT22;4307;53.868;11.680;2023-10-08T15:57:59;15.10;96.40
8539;DHT22;4307;53.868;11.680;2023-10-08T16:00:25;15.00;96.40
8539;DHT22;4307;53.868;11.680;2023-10-08T16:02:53;15.00;96.50
8539;DHT22;4307;53.868;11.680;2023-10-08T16:05:20;14.90;96.60
8539;DHT22;4307;53.868;11.680;2023-10-08T16:07:48;14.90;96.80
8539;DHT22;4307;53.868;11.680;2023-10-08T16:10:14;14.80;96.90
8539;DHT22;4307;53.868;11.680;2023-10-08T16:12:41;14.80;97.00